Christopher Grosbois

Christopher Grosbois

Statistiques 2026

  • Courses courues : 321
  • Nb de victoires : 35
  • Nb de places : 84
  • Écart gagnant : 4
  • Réussite à la gagne : 11%
  • Réussite à la place : 26%
Musique : 3p 0p 0p 5p 1p 0p 10p 1p 10p 2p 8p 11p 12p 7p 10p 8p 4p 9p
DateRangCatégorieAlloc.Dist.HippodromeChevalPoidsSpé.
14/04/24 4 Galop 20 000€ Senonnes La Pelemoise 54 Plat
14/04/24 5 Galop 20 000€ Senonnes La Doloise 56 Plat
14/04/24 11 Galop 11 000€ Senonnes Kotkie du Moulin 60,5 Plat
14/04/24 6 Galop 11 000€ Senonnes Maighread 58 Plat
14/04/24 5 Galop 27 000€ Senonnes Izgor de Viette 68,5 Haies
14/04/24 1 Galop 29 000€ Senonnes Giacomo 68 Haies
06/07/24 4 Galop 15 000€ Senonnes Usnavygirl 57 Plat
06/07/24 11 Galop 16 000€ Senonnes Charlychic 56,5 Plat
03/08/24 7 Galop 14 000€ Senonnes Kastille d'herm 64 Plat
03/08/24 10 Galop 14 000€ Senonnes Got Frost 53 Plat
03/08/24 5 Galop 16 000€ Senonnes Spatial Merit 56 Plat
15/03/25 11 Galop 12 500€ Senonnes Laorana 60,5 Plat
15/03/25 14 Galop 14 000€ Senonnes Munaadram 57 Plat
15/03/25 10 Galop 16 000€ Senonnes Spinning Mist 55,5 Plat
15/03/25 8 Galop 20 000€ Senonnes Cannello 53,5 Plat lire

Après avoir figuré au sein du peloton, n'a pas trop mal conclu.

12/04/25 A Galop 27 000€ Senonnes Jocker de Juilley 67 Haies
12/04/25 11 Galop 11 000€ Senonnes Sprint Final 56 Plat
12/04/25 7 Galop 11 500€ Senonnes Milijim 64 Plat
12/04/25 4 Galop 9 000€ Senonnes Catelle Rose 56,5 Plat
12/04/25 4 Galop 14 000€ Senonnes Lou Marina 61 Plat
30/05/25 12 Galop 16 000€ Senonnes L'Etoile de France 57,5 Plat
30/05/25 9 Galop 16 000€ Senonnes Alberi 60 Plat
30/05/25 3 Galop 14 000€ Senonnes Vega Dream 57 Plat
09/07/25 11 Galop 15 400€ Senonnes Marceline Desjy 56,5 Plat
02/08/25 4 Galop 15 400€ Senonnes Grecian Bonanza 56 Plat
02/08/25 6 Galop 9 600€ Senonnes Fazayah 55,5 Plat
02/08/25 1 Galop 12 800€ Senonnes Kallia 67 Plat
02/08/25 5 Galop 12 800€ Senonnes Kozak de Pretot 64 Plat
13/03/26 7 Galop 16 300€ Senonnes Self Control 59 Plat
13/03/26 2 Galop 13 400€ Senonnes Korem 54 Plat
13/03/26 7 Galop 15 400€ Senonnes El Madar 56 Plat
13/03/26 7 Galop 12 500€ Senonnes Semeur 58 Plat
13/03/26 14 Galop 13 400€ Senonnes Baltfoot Fal 58 Plat
13/03/26 8 Galop 15 400€ Senonnes Princess Kara 59 Plat
13/03/26 12 Galop 19 200€ Senonnes Jaguare Precieuse 56 Plat
10/08/24 1 Mixte 9 000€ Sille Le Guillaume Edestriav 58 Plat
10/08/24 3 Mixte 7 000€ Sille Le Guillaume Kindy Bere 54,5 Plat
08/08/26 1 Mixte 7 500€ Sille Le Guillaume Histoiredemars 54,5 Plat
12/08/18 4 Mixte 9 500€ Sille Le Guillaume Liyana 56,5 Plat
12/08/18 7 Mixte 9 500€ Sille Le Guillaume Spaliburg Rosetgri 61 Plat
08/05/26 8 Galop 15 400€ Strasbourg Glory Days 52 Plat
08/05/26 15 Galop 19 200€ Strasbourg Shackleton 52,5 Plat
08/05/26 9 Galop 16 300€ Strasbourg What Else Chop 59 Plat
08/05/26 8 Galop 19 200€ Strasbourg Hello Vega 58 Plat
01/12/24 1 Galop 26 000€ Toulouse Klarix 67 Haies
01/12/24 5 Galop 12 500€ Toulouse Promesse 54,5 Plat
24/02/25 0 Galop 37 000€ Toulouse Klovis Bleue 71 Haies
10/10/25 4 Galop 19 200€ Toulouse Sakhaline 60,5 Plat
10/10/25 6 Galop 16 300€ Toulouse Hinat 54 Plat
10/10/25 8 Galop 20 000€ Toulouse Ambra Saint Lon 58 Plat